createdAt,value
2019-04-14T00:07:06.295Z,99.90
2019-04-14T00:09:36.067Z,99.90
2019-04-14T00:12:07.426Z,99.90
2019-04-14T00:14:35.790Z,99.90
2019-04-14T00:17:04.661Z,99.90
2019-04-14T00:24:03.083Z,99.90
2019-04-14T00:26:35.523Z,99.90
2019-04-14T00:32:55.162Z,99.90
2019-04-14T00:35:34.548Z,99.90
2019-04-14T00:38:34.492Z,99.90
2019-04-14T00:41:11.989Z,99.90
2019-04-14T00:44:10.010Z,99.90
2019-04-14T00:46:45.728Z,99.90
2019-04-14T00:49:14.190Z,99.90
2019-04-14T00:55:57.960Z,99.90
2019-04-14T00:58:27.861Z,99.90
2019-04-14T01:01:04.843Z,99.90
2019-04-14T01:03:35.179Z,99.90
2019-04-14T01:06:12.122Z,99.90
2019-04-14T01:08:42.441Z,99.90
2019-04-14T01:11:15.990Z,99.90
2019-04-14T01:14:23.314Z,99.90
2019-04-14T01:16:53.818Z,99.90
2019-04-14T01:19:22.714Z,99.90
2019-04-14T01:22:00.945Z,99.90
2019-04-14T01:24:29.618Z,99.90
2019-04-14T01:26:59.453Z,99.90
2019-04-14T01:29:28.056Z,99.90
2019-04-14T01:31:56.523Z,99.90
2019-04-14T01:34:26.015Z,99.90
2019-04-14T01:36:54.685Z,99.90
2019-04-14T01:39:24.222Z,99.90
2019-04-14T01:41:54.207Z,99.90
2019-04-14T01:44:24.147Z,99.90
2019-04-14T01:46:54.149Z,99.90
2019-04-14T01:49:23.062Z,99.90
2019-04-14T01:52:08.453Z,99.90
2019-04-14T01:54:45.293Z,99.90
2019-04-14T01:57:22.068Z,99.90
2019-04-14T01:59:50.637Z,99.90
2019-04-14T02:02:27.021Z,99.90
2019-04-14T02:04:55.616Z,99.90
2019-04-14T02:07:25.433Z,99.90
2019-04-14T02:09:55.260Z,99.90
2019-04-14T02:12:23.897Z,99.90
2019-04-14T02:14:52.355Z,99.90
2019-04-14T02:17:21.935Z,99.90
2019-04-14T02:19:50.568Z,99.90
2019-04-14T02:22:20.189Z,99.90
2019-04-14T02:24:48.785Z,99.90
2019-04-14T02:27:17.241Z,99.90
2019-04-14T02:29:45.738Z,99.90
2019-04-14T02:32:45.302Z,99.90
2019-04-14T02:35:13.627Z,99.90
2019-04-14T02:37:49.129Z,99.90
2019-04-14T02:42:39.542Z,99.90
2019-04-14T02:45:19.401Z,99.90
2019-04-14T02:47:56.834Z,99.90
2019-04-14T02:52:47.258Z,99.90
2019-04-14T02:55:10.900Z,99.90
2019-04-14T02:57:37.873Z,99.90
2019-04-14T03:00:16.571Z,99.90
2019-04-14T03:05:13.334Z,99.90
2019-04-14T03:10:22.321Z,99.90
2019-04-14T03:15:17.000Z,99.90
2019-04-14T03:17:58.286Z,99.90
2019-04-14T03:20:35.614Z,99.90
2019-04-14T03:23:21.227Z,99.90
2019-04-14T03:25:37.499Z,99.90
2019-04-14T03:31:25.414Z,99.90
2019-04-14T03:36:25.416Z,99.90
2019-04-14T03:43:33.827Z,99.90
2019-04-14T03:45:59.208Z,99.90
2019-04-14T03:51:02.105Z,99.90
2019-04-14T03:53:42.789Z,99.90
2019-04-14T03:55:55.335Z,99.90
2019-04-14T03:58:21.092Z,99.90
2019-04-14T04:00:49.627Z,99.90
2019-04-14T04:03:18.165Z,99.90
2019-04-14T04:05:47.760Z,99.90
2019-04-14T04:08:16.462Z,99.90
2019-04-14T04:10:49.313Z,99.90
2019-04-14T04:13:17.770Z,99.90
2019-04-14T04:15:47.558Z,99.90
2019-04-14T04:18:17.856Z,99.90
2019-04-14T04:21:05.262Z,99.90
2019-04-14T04:23:53.214Z,99.90
2019-04-14T04:26:32.270Z,99.90
2019-04-14T04:29:02.731Z,99.90
2019-04-14T04:31:39.571Z,99.90
2019-04-14T04:34:09.933Z,99.90
2019-04-14T04:36:57.500Z,99.90
2019-04-14T04:39:27.994Z,99.90
2019-04-14T04:41:57.917Z,99.90
2019-04-14T04:44:27.018Z,99.90
2019-04-14T04:46:55.566Z,99.90
2019-04-14T04:49:26.498Z,99.90
2019-04-14T04:51:55.128Z,99.90
2019-04-14T04:54:23.653Z,99.90
2019-04-14T04:56:52.139Z,99.90
2019-04-14T04:59:21.276Z,99.90
2019-04-14T05:01:49.876Z,99.90
2019-04-14T05:04:18.339Z,99.90
2019-04-14T05:07:01.550Z,99.90
2019-04-14T05:09:38.851Z,99.90
2019-04-14T05:12:15.734Z,99.90
2019-04-14T05:14:45.911Z,99.90
2019-04-14T05:17:16.989Z,99.90
2019-04-14T05:19:45.596Z,99.90
2019-04-14T05:22:17.106Z,99.90
2019-04-14T05:24:44.635Z,99.90
2019-04-14T05:27:13.119Z,99.90
2019-04-14T05:29:42.934Z,99.90
2019-04-14T05:32:11.595Z,99.90
2019-04-14T05:34:41.137Z,99.90
2019-04-14T05:37:09.825Z,99.90
2019-04-14T05:39:38.311Z,99.90
2019-04-14T05:42:13.223Z,99.90
2019-04-14T05:44:38.170Z,99.90
2019-04-14T05:47:06.705Z,99.90
2019-04-14T05:49:41.118Z,99.90
2019-04-14T05:52:05.575Z,99.90
2019-04-14T05:54:34.215Z,99.90
2019-04-14T05:57:02.746Z,99.90
2019-04-14T05:59:31.207Z,99.90
2019-04-14T06:01:59.987Z,99.90
2019-04-14T06:04:28.609Z,99.90
2019-04-14T06:06:57.101Z,99.90
2019-04-14T06:09:25.590Z,99.90
2019-04-14T06:11:54.379Z,99.90
2019-04-14T06:14:22.851Z,99.90
2019-04-14T06:16:51.612Z,99.90
2019-04-14T06:19:20.385Z,99.90
2019-04-14T06:21:48.861Z,99.90
2019-04-14T06:24:17.353Z,99.90
2019-04-14T06:26:45.796Z,99.90
2019-04-14T06:29:14.266Z,99.90
2019-04-14T06:31:44.371Z,99.90
2019-04-14T06:34:17.193Z,99.90
2019-04-14T06:36:47.285Z,99.90
2019-04-14T06:39:17.420Z,99.90
2019-04-14T06:41:45.914Z,99.90
2019-04-14T06:44:14.466Z,99.90
2019-04-14T06:46:42.959Z,99.90
2019-04-14T06:49:11.405Z,99.90
2019-04-14T06:51:40.063Z,99.90
2019-04-14T06:54:08.526Z,99.90
2019-04-14T06:56:36.967Z,99.90
2019-04-14T06:59:05.518Z,99.90
2019-04-14T07:01:33.978Z,99.90
2019-04-14T07:04:02.462Z,99.90
2019-04-14T07:06:31.265Z,99.90
2019-04-14T07:08:59.727Z,99.90
2019-04-14T07:11:28.198Z,99.90
2019-04-14T07:13:56.655Z,99.90
2019-04-14T07:16:25.513Z,99.90
2019-04-14T07:18:54.006Z,99.90
2019-04-14T07:21:22.474Z,99.90
2019-04-14T07:26:33.131Z,99.90
2019-04-14T07:29:01.620Z,99.90
2019-04-14T07:31:37.612Z,99.90
2019-04-14T07:34:24.179Z,99.90
2019-04-14T07:36:54.302Z,99.90
2019-04-14T07:39:24.458Z,99.90
2019-04-14T07:42:06.773Z,99.90
2019-04-14T07:45:06.910Z,99.90
2019-04-14T07:47:51.743Z,99.90
2019-04-14T07:50:42.020Z,99.90
2019-04-14T07:53:40.522Z,99.90
2019-04-14T07:56:10.993Z,99.90
2019-04-14T07:58:53.418Z,99.90
2019-04-14T08:01:35.499Z,99.90
2019-04-14T08:04:23.543Z,99.90
2019-04-14T08:06:53.608Z,99.90
2019-04-14T08:09:46.623Z,99.90
2019-04-14T08:12:15.214Z,99.90
2019-04-14T08:14:46.636Z,99.90
2019-04-14T08:17:28.948Z,99.90
2019-04-14T08:20:01.302Z,99.90
2019-04-14T08:22:29.797Z,99.90
2019-04-14T08:25:02.648Z,99.90
2019-04-14T08:27:35.068Z,99.90
2019-04-14T08:30:05.011Z,99.90
2019-04-14T08:32:34.737Z,99.90
2019-04-14T08:35:11.997Z,99.90
2019-04-14T08:37:40.459Z,99.90
2019-04-14T08:40:09.494Z,99.90
2019-04-14T08:42:57.730Z,99.90
2019-04-14T08:45:44.698Z,99.90
2019-04-14T08:48:17.674Z,99.90
2019-04-14T08:50:52.499Z,99.90
2019-04-14T08:53:40.136Z,99.90
2019-04-14T08:59:21.225Z,99.90
2019-04-14T09:01:57.187Z,99.90
2019-04-14T09:04:44.857Z,99.90
2019-04-14T09:07:26.829Z,99.90
2019-04-14T09:10:08.828Z,99.90
2019-04-14T09:12:38.940Z,99.90
2019-04-14T09:15:07.977Z,99.90
2019-04-14T09:17:36.802Z,99.90
2019-04-14T09:20:06.677Z,99.90
2019-04-14T09:22:35.133Z,99.90
2019-04-14T09:25:04.390Z,99.90
2019-04-14T09:27:33.982Z,99.70
2019-04-14T09:30:02.598Z,99.60
2019-04-14T09:32:31.354Z,99.90
2019-04-14T09:35:01.059Z,99.30
2019-04-14T09:37:32.433Z,99.60
2019-04-14T09:40:01.219Z,99.90
2019-04-14T09:42:29.984Z,99.90
2019-04-14T09:44:59.573Z,99.80
2019-04-14T09:47:28.141Z,99.90
2019-04-14T09:49:56.961Z,99.30
2019-04-14T09:52:25.853Z,98.30
2019-04-14T09:54:55.520Z,98.00
2019-04-14T09:57:25.476Z,96.40
2019-04-14T09:59:59.422Z,96.60
2019-04-14T10:02:27.965Z,97.20
2019-04-14T10:04:59.665Z,97.10
2019-04-14T10:07:28.249Z,96.40
2019-04-14T10:10:01.081Z,96.30
2019-04-14T10:12:29.654Z,96.20
2019-04-14T10:14:58.183Z,95.20
2019-04-14T10:17:30.137Z,93.70
2019-04-14T10:19:58.649Z,94.50
2019-04-14T10:22:33.911Z,94.00
2019-04-14T10:24:57.379Z,94.70
2019-04-14T10:27:28.986Z,94.30
2019-04-14T10:29:57.749Z,91.60
2019-04-14T10:32:29.764Z,93.60
2019-04-14T10:35:02.136Z,94.30
2019-04-14T10:38:08.035Z,95.10
2019-04-14T10:40:39.181Z,93.20
2019-04-14T10:43:08.710Z,95.50
2019-04-14T10:45:38.223Z,94.70
2019-04-14T10:48:06.769Z,93.40
2019-04-14T10:50:35.296Z,94.30
2019-04-14T10:53:03.869Z,94.10
2019-04-14T10:55:35.173Z,93.90
2019-04-14T10:58:04.050Z,91.80
2019-04-14T11:00:35.441Z,91.70
2019-04-14T11:03:04.387Z,92.50
2019-04-14T11:05:41.364Z,94.00
2019-04-14T11:08:09.852Z,91.70
2019-04-14T11:10:39.419Z,92.70
2019-04-14T11:13:08.223Z,91.00
2019-04-14T11:15:40.852Z,91.00
2019-04-14T11:18:12.234Z,92.30
2019-04-14T11:20:45.825Z,91.50
2019-04-14T11:23:38.805Z,92.50
2019-04-14T11:26:12.444Z,91.30
2019-04-14T11:28:41.191Z,91.50
2019-04-14T11:31:10.288Z,89.10
2019-04-14T11:33:41.591Z,88.60
2019-04-14T11:36:35.305Z,91.90
2019-04-14T11:39:07.129Z,91.80
2019-04-14T11:41:37.161Z,88.80
2019-04-14T11:44:06.483Z,87.70
2019-04-14T11:46:41.506Z,88.80
2019-04-14T11:49:09.987Z,90.30
2019-04-14T11:51:41.584Z,87.60
2019-04-14T11:54:10.123Z,86.80
2019-04-14T11:56:38.736Z,88.90
2019-04-14T11:59:08.467Z,88.10
2019-04-14T12:01:38.617Z,86.60
2019-04-14T12:04:19.829Z,85.20
2019-04-14T12:06:50.109Z,88.40
2019-04-14T12:09:43.640Z,86.10
2019-04-14T12:12:19.722Z,87.50
2019-04-14T12:14:48.192Z,85.50
2019-04-14T12:17:17.752Z,82.60
2019-04-14T12:19:46.239Z,83.70
2019-04-14T12:22:14.754Z,85.20
2019-04-14T12:24:44.785Z,79.60
2019-04-14T12:27:13.267Z,80.50
2019-04-14T12:29:41.777Z,83.40
2019-04-14T12:32:12.752Z,79.60
2019-04-14T12:34:41.368Z,80.20
2019-04-14T12:37:10.898Z,83.10
2019-04-14T12:39:40.687Z,83.90
2019-04-14T12:42:19.696Z,82.40
2019-04-14T12:45:09.138Z,83.10
2019-04-14T12:47:41.974Z,81.90
2019-04-14T12:50:17.430Z,81.10
2019-04-14T12:52:45.921Z,78.90
2019-04-14T12:55:15.788Z,80.60
2019-04-14T12:57:52.299Z,79.60
2019-04-14T13:00:22.574Z,81.50
2019-04-14T13:02:53.694Z,81.00
2019-04-14T13:05:23.309Z,79.50
2019-04-14T13:07:52.835Z,78.80
2019-04-14T13:10:21.312Z,79.70
2019-04-14T13:12:49.799Z,79.20
2019-04-14T13:15:18.360Z,79.80
2019-04-14T13:17:46.876Z,74.50
2019-04-14T13:20:16.801Z,75.60
2019-04-14T13:22:46.272Z,77.30
2019-04-14T13:25:14.900Z,78.30
2019-04-14T13:27:43.399Z,78.80
2019-04-14T13:30:14.171Z,77.90
2019-04-14T13:32:42.631Z,75.70
2019-04-14T13:35:11.195Z,76.10
2019-04-14T13:37:39.645Z,77.00
2019-04-14T13:40:08.652Z,77.00
2019-04-14T13:42:37.130Z,75.90
2019-04-14T13:45:06.739Z,77.20
2019-04-14T13:47:35.258Z,74.80
2019-04-14T13:50:06.264Z,76.30
2019-04-14T13:52:46.052Z,75.00
2019-04-14T13:55:06.713Z,76.00
2019-04-14T13:57:35.190Z,72.50
2019-04-14T14:00:06.332Z,74.20
2019-04-14T14:02:34.826Z,73.60
2019-04-14T14:05:03.351Z,76.50
2019-04-14T14:07:31.831Z,76.40
2019-04-14T14:10:00.286Z,76.00
2019-04-14T14:12:46.962Z,72.80
2019-04-14T14:15:33.596Z,73.10
2019-04-14T14:18:20.004Z,74.70
2019-04-14T14:20:50.127Z,73.80
2019-04-14T14:23:20.251Z,74.20
2019-04-14T14:25:52.921Z,75.10
2019-04-14T14:28:21.395Z,73.20
2019-04-14T14:30:50.203Z,73.10
2019-04-14T14:33:18.667Z,75.50
2019-04-14T14:35:47.457Z,76.00
2019-04-14T14:38:15.949Z,76.10
2019-04-14T14:40:44.440Z,76.10
2019-04-14T14:43:12.904Z,76.70
2019-04-14T14:45:45.978Z,74.70
2019-04-14T14:48:19.095Z,73.20
2019-04-14T14:50:54.779Z,75.00
2019-04-14T14:53:23.259Z,74.40
2019-04-14T14:55:52.043Z,72.70
2019-04-14T14:58:20.505Z,73.10
2019-04-14T15:00:49.284Z,74.50
2019-04-14T15:03:17.847Z,75.20
2019-04-14T15:05:46.629Z,75.40
2019-04-14T15:08:15.194Z,75.10
2019-04-14T15:10:43.659Z,75.80
2019-04-14T15:13:12.110Z,74.90
2019-04-14T15:15:40.558Z,75.20
2019-04-14T15:18:09.117Z,75.00
2019-04-14T15:20:37.638Z,76.70
2019-04-14T15:23:06.168Z,78.00
2019-04-14T15:25:34.740Z,78.30
2019-04-14T15:28:03.217Z,77.80
2019-04-14T15:30:32.029Z,78.80
2019-04-14T15:33:00.869Z,78.50
2019-04-14T15:35:29.353Z,78.90
2019-04-14T15:37:58.146Z,79.10
2019-04-14T15:40:26.964Z,77.90
2019-04-14T15:42:55.503Z,79.90
2019-04-14T15:45:23.976Z,79.50
2019-04-14T15:47:52.794Z,79.60
2019-04-14T15:50:21.258Z,78.20
2019-04-14T15:52:49.725Z,79.30
2019-04-14T15:55:18.857Z,80.10
2019-04-14T15:57:58.223Z,80.70
2019-04-14T16:00:43.581Z,79.90
2019-04-14T16:03:25.349Z,81.00
2019-04-14T16:06:11.624Z,81.00
2019-04-14T16:08:41.755Z,81.70
2019-04-14T16:11:27.912Z,81.90
2019-04-14T16:14:14.487Z,80.70
2019-04-14T16:17:00.814Z,82.10
2019-04-14T16:19:33.869Z,80.50
2019-04-14T16:22:02.369Z,82.30
2019-04-14T16:24:30.841Z,82.30
2019-04-14T16:27:16.825Z,83.30
2019-04-14T16:29:46.962Z,83.20
2019-04-14T16:32:33.184Z,82.50
2019-04-14T16:35:03.307Z,83.50
2019-04-14T16:37:31.771Z,83.50
2019-04-14T16:40:00.259Z,83.80
2019-04-14T16:42:28.734Z,83.50
2019-04-14T16:44:57.194Z,83.70
2019-04-14T16:47:25.675Z,83.90
2019-04-14T16:49:54.573Z,84.40
2019-04-14T16:52:30.693Z,84.80
2019-04-14T16:55:12.623Z,85.00
2019-04-14T16:57:58.883Z,85.70
2019-04-14T17:00:29.011Z,86.50
2019-04-14T17:02:57.741Z,86.90
2019-04-14T17:05:26.185Z,87.10
2019-04-14T17:07:54.657Z,86.20
2019-04-14T17:10:23.794Z,85.90
2019-04-14T17:12:52.274Z,86.70
2019-04-14T17:15:34.364Z,87.00
2019-04-14T17:18:20.674Z,87.20
2019-04-14T17:21:05.744Z,87.20
2019-04-14T17:23:35.878Z,87.90
2019-04-14T17:26:24.462Z,88.50
2019-04-14T17:29:09.433Z,89.30
2019-04-14T17:31:54.384Z,89.10
2019-04-14T17:34:27.269Z,89.90
2019-04-14T17:36:57.361Z,90.40
2019-04-14T17:39:31.823Z,90.20
2019-04-14T17:42:04.725Z,90.00
2019-04-14T17:44:52.891Z,90.40
2019-04-14T17:47:25.710Z,90.60
2019-04-14T17:50:01.379Z,90.60
2019-04-14T17:52:31.525Z,90.70
2019-04-14T17:55:04.865Z,90.90
2019-04-14T17:57:34.971Z,90.80
2019-04-14T18:00:09.237Z,90.80
2019-04-14T18:02:42.449Z,90.80
2019-04-14T18:05:12.832Z,90.90
2019-04-14T18:07:42.977Z,91.00
2019-04-14T18:10:13.147Z,91.00
2019-04-14T18:13:01.295Z,91.00
2019-04-14T18:15:31.831Z,91.20
2019-04-14T18:18:07.858Z,91.10
2019-04-14T18:20:46.817Z,91.40
2019-04-14T18:23:15.330Z,91.70
2019-04-14T18:25:43.793Z,92.30
2019-04-14T18:28:13.907Z,92.50
2019-04-14T18:30:49.869Z,92.40
2019-04-14T18:33:26.087Z,92.70
2019-04-14T18:35:56.212Z,92.20
2019-04-14T18:38:42.434Z,92.20
2019-04-14T18:41:15.621Z,92.50
2019-04-14T18:43:45.719Z,92.60
2019-04-14T18:46:21.721Z,92.80
2019-04-14T18:48:54.798Z,93.30
2019-04-14T18:51:27.403Z,93.60
2019-04-14T18:53:58.435Z,94.20
2019-04-14T18:56:40.650Z,94.80
2019-04-14T18:59:13.574Z,94.80
2019-04-14T19:01:43.661Z,95.20
2019-04-14T19:04:12.423Z,95.30
2019-04-14T19:06:40.909Z,95.50
2019-04-14T19:09:09.795Z,95.90
2019-04-14T19:11:56.290Z,96.20
2019-04-14T19:14:29.327Z,96.00
2019-04-14T19:16:59.740Z,96.00
2019-04-14T19:19:28.377Z,96.30
2019-04-14T19:21:56.853Z,96.20
2019-04-14T19:24:25.307Z,96.40
2019-04-14T19:26:54.093Z,95.90
2019-04-14T19:29:22.572Z,96.10
2019-04-14T19:31:51.113Z,95.70
2019-04-14T19:34:19.602Z,96.10
2019-04-14T19:36:48.054Z,96.10
2019-04-14T19:39:16.698Z,96.10
2019-04-14T19:41:45.503Z,96.40
2019-04-14T19:44:13.980Z,96.60
2019-04-14T19:46:43.783Z,96.90
2019-04-14T19:49:12.274Z,96.60
2019-04-14T19:51:40.750Z,96.80
2019-04-14T19:54:09.347Z,97.20
2019-04-14T19:56:37.831Z,98.00
2019-04-14T19:59:06.277Z,98.80
2019-04-14T20:01:34.791Z,99.10
2019-04-14T20:04:03.238Z,98.80
2019-04-14T20:06:31.727Z,98.60
2019-04-14T20:09:00.182Z,98.90
2019-04-14T20:11:28.740Z,98.80
2019-04-14T20:13:57.181Z,99.10
2019-04-14T20:16:43.677Z,99.90
2019-04-14T20:19:16.562Z,99.90
2019-04-14T20:21:52.504Z,99.90
2019-04-14T20:24:25.369Z,99.90
2019-04-14T20:27:04.611Z,99.90
2019-04-14T20:29:34.714Z,99.90
2019-04-14T20:32:04.850Z,99.90
2019-04-14T20:34:33.348Z,99.90
2019-04-14T20:37:01.807Z,99.90
2019-04-14T20:39:30.445Z,99.90
2019-04-14T20:41:58.968Z,99.90
2019-04-14T20:44:27.569Z,99.90
2019-04-14T20:46:56.311Z,99.50
2019-04-14T20:49:24.855Z,99.00
2019-04-14T20:51:53.329Z,98.80
2019-04-14T20:54:21.817Z,99.20
2019-04-14T20:56:50.348Z,99.30
2019-04-14T20:59:18.818Z,99.10
2019-04-14T21:01:48.954Z,98.60
2019-04-14T21:04:19.212Z,99.90
2019-04-14T21:06:56.203Z,99.40
2019-04-14T21:09:32.319Z,98.70
2019-04-14T21:12:02.439Z,99.00
2019-04-14T21:14:32.538Z,98.60
2019-04-14T21:17:08.430Z,99.40
2019-04-14T21:19:47.381Z,98.80
2019-04-14T21:22:29.815Z,99.10
2019-04-14T21:25:14.902Z,98.90
2019-04-14T21:27:47.917Z,99.90
2019-04-14T21:30:18.191Z,99.10
2019-04-14T21:32:57.198Z,98.40
2019-04-14T21:35:39.157Z,99.00
2019-04-14T21:38:12.200Z,99.90
2019-04-14T21:40:47.817Z,99.90
2019-04-14T21:43:16.261Z,99.90
2019-04-14T21:45:44.739Z,99.70
2019-04-14T21:48:13.271Z,98.60
2019-04-14T21:50:42.015Z,99.00
2019-04-14T21:53:10.547Z,99.70
2019-04-14T21:55:39.079Z,99.90
2019-04-14T21:58:27.222Z,99.90
2019-04-14T22:01:37.811Z,99.90
2019-04-14T22:04:08.351Z,99.90
2019-04-14T22:06:38.759Z,99.90
2019-04-14T22:09:09.204Z,99.90
2019-04-14T22:11:39.427Z,99.90
2019-04-14T22:14:07.950Z,99.90
2019-04-14T22:16:36.482Z,99.90
2019-04-14T22:19:05.042Z,99.90
2019-04-14T22:21:33.815Z,99.90
2019-04-14T22:24:02.449Z,99.90
2019-04-14T22:26:30.948Z,99.90
2019-04-14T22:29:02.304Z,99.90
2019-04-14T22:31:29.622Z,99.90
2019-04-14T22:33:58.096Z,99.90
2019-04-14T22:36:26.584Z,99.90
2019-04-14T22:38:55.045Z,99.90
2019-04-14T22:41:23.508Z,99.90
2019-04-14T22:43:52.045Z,99.90
2019-04-14T22:46:20.593Z,99.90
2019-04-14T22:48:49.148Z,99.90
2019-04-14T22:51:17.620Z,99.90
2019-04-14T22:53:46.078Z,99.90
2019-04-14T22:56:14.626Z,99.90
2019-04-14T22:58:43.087Z,99.90
2019-04-14T23:01:13.482Z,99.90
2019-04-14T23:03:52.496Z,99.90
2019-04-14T23:06:31.429Z,99.90
2019-04-14T23:09:01.561Z,99.90
2019-04-14T23:11:43.441Z,99.90
2019-04-14T23:14:19.291Z,99.90
2019-04-14T23:17:04.285Z,99.90
2019-04-14T23:19:34.378Z,99.90
2019-04-14T23:22:13.597Z,99.90
2019-04-14T23:24:43.801Z,99.90
2019-04-14T23:27:12.255Z,99.90
2019-04-14T23:29:40.726Z,99.90
2019-04-14T23:32:09.199Z,99.90
2019-04-14T23:34:37.677Z,99.90
2019-04-14T23:37:06.135Z,99.90
2019-04-14T23:39:34.678Z,99.90
2019-04-14T23:42:03.223Z,99.90
2019-04-14T23:44:31.694Z,99.90
2019-04-14T23:47:00.168Z,99.90
2019-04-14T23:49:28.627Z,99.90
2019-04-14T23:51:57.175Z,99.90
2019-04-14T23:54:25.735Z,99.90
2019-04-14T23:57:04.866Z,99.90
2019-04-14T23:59:24.717Z,99.90
